createdAt,value
2022-11-05T00:04:34.020Z,44.69
2022-11-05T00:09:41.224Z,44.72
2022-11-05T00:14:48.377Z,44.69
2022-11-05T00:19:55.632Z,44.74
2022-11-05T00:25:03.012Z,44.74
2022-11-05T00:30:10.203Z,44.72
2022-11-05T00:35:17.402Z,44.79
2022-11-05T00:40:24.723Z,44.82
2022-11-05T00:45:31.780Z,44.81
2022-11-05T00:50:38.981Z,44.75
2022-11-05T00:55:46.165Z,44.74
2022-11-05T01:00:53.362Z,44.73
2022-11-05T01:06:00.538Z,44.73
2022-11-05T01:11:07.770Z,44.81
2022-11-05T01:16:14.965Z,44.83
2022-11-05T01:21:22.171Z,44.95
2022-11-05T01:26:29.556Z,44.55
2022-11-05T01:31:36.774Z,44.38
2022-11-05T01:36:43.977Z,44.21
2022-11-05T01:41:51.274Z,44.18
2022-11-05T01:46:58.490Z,44.14
2022-11-05T01:52:05.746Z,44.14
2022-11-05T01:57:13.092Z,44.14
2022-11-05T02:02:20.616Z,44.14
2022-11-05T02:07:27.773Z,44.16
2022-11-05T02:12:35.060Z,44.23
2022-11-05T02:17:42.336Z,44.26
2022-11-05T02:22:49.575Z,44.31
2022-11-05T02:27:56.933Z,44.41
2022-11-05T02:33:04.044Z,44.43
2022-11-05T02:38:11.281Z,44.54
2022-11-05T02:43:18.636Z,44.62
2022-11-05T02:48:25.930Z,44.68
2022-11-05T02:53:33.189Z,44.74
2022-11-05T02:58:40.553Z,44.82
2022-11-05T03:03:47.856Z,44.83
2022-11-05T03:08:55.186Z,44.89
2022-11-05T03:14:02.415Z,44.93
2022-11-05T03:19:09.617Z,44.98
2022-11-05T03:24:16.827Z,45.01
2022-11-05T03:29:24.055Z,45.01
2022-11-05T03:34:31.180Z,45.04
2022-11-05T03:39:38.509Z,45.10
2022-11-05T03:44:45.882Z,45.11
2022-11-05T03:49:53.078Z,45.12
2022-11-05T03:55:00.261Z,45.17
2022-11-05T04:00:07.589Z,45.17
2022-11-05T04:05:14.755Z,45.16
2022-11-05T04:10:21.955Z,45.17
2022-11-05T04:15:29.486Z,45.17
2022-11-05T04:20:36.628Z,45.23
2022-11-05T04:25:43.848Z,45.29
2022-11-05T04:30:51.336Z,45.37
2022-11-05T04:35:58.578Z,45.37
2022-11-05T04:41:05.847Z,45.40
2022-11-05T04:46:13.132Z,45.38
2022-11-05T04:51:20.371Z,45.35
2022-11-05T04:56:27.571Z,45.33
2022-11-05T05:01:35.115Z,45.33
2022-11-05T05:06:45.216Z,45.36
2022-11-05T05:11:52.573Z,45.38
2022-11-05T05:17:00.107Z,45.36
2022-11-05T05:22:07.230Z,45.40
2022-11-05T05:27:14.444Z,45.41
2022-11-05T05:32:21.798Z,45.41
2022-11-05T05:37:28.955Z,45.41
2022-11-05T05:42:41.750Z,45.41
2022-11-05T05:47:43.414Z,45.40
2022-11-05T05:52:50.776Z,45.40
2022-11-05T05:57:58.010Z,45.40
2022-11-05T06:03:05.465Z,45.43
2022-11-05T06:08:12.537Z,45.46
2022-11-05T06:13:19.801Z,45.52
2022-11-05T06:18:27.104Z,45.51
2022-11-05T06:23:34.319Z,45.56
2022-11-05T06:28:41.677Z,45.54
2022-11-05T06:33:48.975Z,45.51
2022-11-05T06:38:56.226Z,45.40
2022-11-05T06:44:03.401Z,45.31
2022-11-05T06:49:12.340Z,45.22
2022-11-05T06:54:19.704Z,45.18
2022-11-05T06:59:26.974Z,45.10
2022-11-05T07:04:34.167Z,45.05
2022-11-05T07:09:41.436Z,45.04
2022-11-05T07:14:48.725Z,44.95
2022-11-05T07:19:56.009Z,44.90
2022-11-05T07:25:03.071Z,44.83
2022-11-05T07:30:10.340Z,44.82
2022-11-05T07:35:17.529Z,44.82
2022-11-05T07:40:24.744Z,44.81
2022-11-05T07:45:31.998Z,44.79
2022-11-05T07:50:39.269Z,44.79
2022-11-05T07:55:46.484Z,44.77
2022-11-05T08:00:53.797Z,44.77
2022-11-05T08:06:00.932Z,44.75
2022-11-05T08:11:08.078Z,44.75
2022-11-05T08:16:15.299Z,44.69
2022-11-05T08:21:22.522Z,44.56
2022-11-05T08:26:29.656Z,44.52
2022-11-05T08:31:36.896Z,44.49
2022-11-05T08:36:44.201Z,44.45
2022-11-05T08:41:51.378Z,44.44
2022-11-05T08:46:59.225Z,44.44
2022-11-05T08:52:06.452Z,44.43
2022-11-05T08:57:13.651Z,44.44
2022-11-05T09:02:21.095Z,44.40
2022-11-05T09:07:28.134Z,44.41
2022-11-05T09:12:36.153Z,44.37
2022-11-05T09:17:43.329Z,44.43
2022-11-05T09:22:50.666Z,44.43
2022-11-05T09:27:57.865Z,44.50
2022-11-05T09:33:05.113Z,44.49
2022-11-05T09:38:12.395Z,44.48
2022-11-05T09:43:19.595Z,44.51
2022-11-05T09:48:26.844Z,44.55
2022-11-05T09:53:34.071Z,44.53
2022-11-05T09:58:41.333Z,44.48
2022-11-05T10:03:48.635Z,44.54
2022-11-05T10:08:55.941Z,44.52
2022-11-05T10:14:03.094Z,44.60
2022-11-05T10:19:10.341Z,44.56
2022-11-05T10:24:17.573Z,44.63
2022-11-05T10:29:24.719Z,44.41
2022-11-05T10:34:31.902Z,43.81
2022-11-05T10:39:39.159Z,44.44
2022-11-05T10:44:46.336Z,44.26
2022-11-05T10:49:53.581Z,44.49
2022-11-05T10:55:00.869Z,44.79
2022-11-05T11:00:08.046Z,44.53
2022-11-05T11:05:15.269Z,44.36
2022-11-05T11:10:22.496Z,44.16
2022-11-05T11:15:29.681Z,44.05
2022-11-05T11:20:36.859Z,43.85
2022-11-05T11:25:44.077Z,43.50
2022-11-05T11:30:51.216Z,43.51
2022-11-05T11:35:58.443Z,43.30
2022-11-05T11:41:05.712Z,43.05
2022-11-05T11:46:15.102Z,42.15
2022-11-05T11:51:19.993Z,42.40
2022-11-05T11:56:27.296Z,42.21
2022-11-05T12:01:34.428Z,42.03
2022-11-05T12:06:41.605Z,41.74
2022-11-05T12:11:48.910Z,41.50
2022-11-05T12:16:56.049Z,41.54
2022-11-05T12:22:03.422Z,41.34
2022-11-05T12:27:10.652Z,41.12
2022-11-05T12:32:17.908Z,39.92
2022-11-05T12:37:25.050Z,39.80
2022-11-05T12:42:32.313Z,39.45
2022-11-05T12:47:39.469Z,39.89
2022-11-05T12:52:46.701Z,40.48
2022-11-05T12:57:54.054Z,40.19
2022-11-05T13:03:01.140Z,41.01
2022-11-05T13:08:08.389Z,41.73
2022-11-05T13:13:15.652Z,41.80
2022-11-05T13:18:22.839Z,41.82
2022-11-05T13:23:30.292Z,41.60
2022-11-05T13:28:37.698Z,41.65
2022-11-05T13:33:44.916Z,42.63
2022-11-05T13:38:52.317Z,41.82
2022-11-05T13:43:59.711Z,42.15
2022-11-05T13:49:06.910Z,41.95
2022-11-05T13:54:14.065Z,41.74
2022-11-05T13:59:21.369Z,42.54
2022-11-05T14:04:28.549Z,41.71
2022-11-05T14:09:35.916Z,41.44
2022-11-05T14:14:43.134Z,41.23
2022-11-05T14:19:51.068Z,41.31
2022-11-05T14:24:58.255Z,41.26
2022-11-05T14:30:05.468Z,41.18
2022-11-05T14:35:13.816Z,41.12
2022-11-05T14:40:21.056Z,40.93
2022-11-05T14:45:28.275Z,40.90
2022-11-05T14:50:35.447Z,40.98
2022-11-05T14:55:42.649Z,42.34
2022-11-05T15:00:50.073Z,41.82
2022-11-05T15:05:57.424Z,42.25
2022-11-05T15:11:04.676Z,41.99
2022-11-05T15:16:11.971Z,42.05
2022-11-05T15:21:19.416Z,41.97
2022-11-05T15:26:26.800Z,41.92
2022-11-05T15:31:34.177Z,41.89
2022-11-05T15:36:41.985Z,41.84
2022-11-05T15:41:49.127Z,41.92
2022-11-05T15:46:56.761Z,40.54
2022-11-05T15:52:04.346Z,40.18
2022-11-05T15:57:11.965Z,41.05
2022-11-05T16:02:19.552Z,40.82
2022-11-05T16:07:26.689Z,40.76
2022-11-05T16:12:33.942Z,41.21
2022-11-05T16:17:41.528Z,40.17
2022-11-05T16:22:48.979Z,39.46
2022-11-05T16:27:56.218Z,41.49
2022-11-05T16:33:03.385Z,41.24
2022-11-05T16:38:10.875Z,41.52
2022-11-05T16:43:18.940Z,40.49
2022-11-05T16:48:26.184Z,41.41
2022-11-05T16:53:33.371Z,41.98
2022-11-05T16:58:40.750Z,41.68
2022-11-05T17:03:48.413Z,41.66
2022-11-05T17:08:55.900Z,41.57
2022-11-05T17:14:03.204Z,41.37
2022-11-05T17:19:10.947Z,40.74
2022-11-05T17:24:18.644Z,40.86
2022-11-05T17:29:26.196Z,40.84
2022-11-05T17:34:33.725Z,40.79
2022-11-05T17:39:41.220Z,40.85
2022-11-05T17:44:48.729Z,40.86
2022-11-05T17:49:56.318Z,41.11
2022-11-05T17:55:03.819Z,41.08
2022-11-05T18:00:11.431Z,41.02
2022-11-05T18:05:19.301Z,40.98
2022-11-05T18:10:26.864Z,40.89
2022-11-05T18:15:34.584Z,40.83
2022-11-05T18:20:42.320Z,40.85
2022-11-05T18:25:52.883Z,40.25
2022-11-05T18:31:00.600Z,40.47
2022-11-05T18:36:08.218Z,40.60
2022-11-05T18:41:15.929Z,40.53
2022-11-05T18:46:51.219Z,40.46
2022-11-05T18:51:31.392Z,40.34
2022-11-05T18:56:38.979Z,40.27
2022-11-05T19:01:46.845Z,40.15
2022-11-05T19:06:54.453Z,39.93
2022-11-05T19:12:01.797Z,39.88
2022-11-05T19:17:09.339Z,39.85
2022-11-05T19:22:17.142Z,39.94
2022-11-05T19:27:24.623Z,39.99
2022-11-05T19:32:32.188Z,39.85
2022-11-05T19:37:39.914Z,39.84
2022-11-05T19:42:47.358Z,39.97
2022-11-05T19:47:54.640Z,40.02
2022-11-05T19:53:02.163Z,40.16
2022-11-05T19:58:10.250Z,40.13
2022-11-05T20:03:17.144Z,39.96
2022-11-05T20:08:24.677Z,39.85
2022-11-05T20:13:32.075Z,39.80
2022-11-05T20:18:39.784Z,39.57
2022-11-05T20:23:47.554Z,39.55
2022-11-05T20:28:55.114Z,39.35
2022-11-05T20:34:02.747Z,39.25
2022-11-05T20:39:10.475Z,39.14
2022-11-05T20:44:17.962Z,39.02
2022-11-05T20:49:26.118Z,38.83
2022-11-05T20:54:33.101Z,38.73
2022-11-05T20:59:40.599Z,38.70
2022-11-05T21:04:48.215Z,38.72
2022-11-05T21:09:55.860Z,38.58
2022-11-05T21:15:03.437Z,38.53
2022-11-05T21:20:11.055Z,38.44
2022-11-05T21:25:18.524Z,38.38
2022-11-05T21:30:26.299Z,38.37
2022-11-05T21:35:33.583Z,38.28
2022-11-05T21:40:41.042Z,38.35
2022-11-05T21:45:48.381Z,38.23
2022-11-05T21:50:55.674Z,38.26
2022-11-05T21:56:02.998Z,37.89
2022-11-05T22:01:10.257Z,37.86
2022-11-05T22:06:17.497Z,37.78
2022-11-05T22:11:24.810Z,37.62
2022-11-05T22:16:32.268Z,37.51
2022-11-05T22:21:39.544Z,37.51
2022-11-05T22:26:46.835Z,37.80
2022-11-05T22:31:54.036Z,38.57
2022-11-05T22:37:01.217Z,38.22
2022-11-05T22:42:09.088Z,38.48
2022-11-05T22:47:15.749Z,37.84
2022-11-05T22:52:22.951Z,37.73
2022-11-05T22:57:30.256Z,37.27
2022-11-05T23:02:37.677Z,37.03
2022-11-05T23:07:44.717Z,36.55
2022-11-05T23:12:51.951Z,36.39
2022-11-05T23:17:59.126Z,36.19
2022-11-05T23:23:06.347Z,36.06
2022-11-05T23:28:13.956Z,36.00
2022-11-05T23:33:20.839Z,35.83
2022-11-05T23:38:28.041Z,35.68
2022-11-05T23:43:35.301Z,35.73
2022-11-05T23:48:42.428Z,35.88
2022-11-05T23:53:49.628Z,36.49
2022-11-05T23:58:56.781Z,36.53
